Time;durP1;ratioP1;P1;durP2;ratioP2;P2;SDS_P1;SDS_P2;PMS_P1;PMS_P2;Temp;Humidity;BMP_temperature;BMP_pressure;BME280_temperature;BME280_humidity;BME280_pressure;Samples;Min_cycle;Max_cycle;Signal;HPM_P1;HPM_P2
2024/03/23 00:00:26;;;;;;;21.42;6.38;;;;;;;5.89;100.00;100972.84;5041844;28;20029;-77
2024/03/23 00:02:52;;;;;;;20.88;6.05;;;;;;;5.85;100.00;100993.72;5042128;28;20030;-79
2024/03/23 00:05:18;;;;;;;22.73;6.50;;;;;;;5.80;100.00;101004.13;5042659;28;20025;-75
2024/03/23 00:07:45;;;;;;;21.90;6.45;;;;;;;5.82;100.00;100996.28;5041366;28;20029;-78
2024/03/23 00:10:11;;;;;;;22.02;6.53;;;;;;;5.89;100.00;100998.22;5043719;28;20036;-64
2024/03/23 00:12:38;;;;;;;20.42;6.43;;;;;;;5.93;100.00;100997.47;5040811;28;20141;-65
2024/03/23 00:15:04;;;;;;;21.85;6.47;;;;;;;5.89;100.00;100993.84;5043965;28;20017;-64
2024/03/23 00:17:30;;;;;;;21.15;6.55;;;;;;;5.85;100.00;101005.09;5042315;28;20040;-65
2024/03/23 00:19:57;;;;;;;22.80;6.53;;;;;;;5.84;100.00;100991.94;5046627;28;20460;-65
2024/03/23 00:22:23;;;;;;;22.27;6.68;;;;;;;5.82;100.00;101001.53;5046112;28;20423;-65
2024/03/23 00:24:50;;;;;;;22.95;7.10;;;;;;;5.77;100.00;100988.28;5045315;28;20030;-65
2024/03/23 00:27:16;;;;;;;20.67;6.57;;;;;;;5.78;100.00;100978.69;5046785;28;20033;-65
2024/03/23 00:29:43;;;;;;;21.40;6.60;;;;;;;5.80;100.00;100972.63;5044584;28;20048;-65
2024/03/23 00:32:09;;;;;;;23.25;6.28;;;;;;;5.79;100.00;100964.72;5047381;28;20025;-65
2024/03/23 00:34:35;;;;;;;22.35;6.60;;;;;;;5.78;100.00;100960.31;5040104;28;20029;-65
2024/03/23 00:37:02;;;;;;;21.23;5.93;;;;;;;5.72;100.00;100959.31;5046955;28;20029;-64
2024/03/23 00:39:28;;;;;;;23.90;6.45;;;;;;;5.66;100.00;100955.66;5044605;28;20468;-64
2024/03/23 00:41:55;;;;;;;22.63;6.45;;;;;;;5.60;100.00;100945.88;5046145;28;20029;-64
2024/03/23 00:44:21;;;;;;;22.13;6.18;;;;;;;5.51;100.00;100954.38;5045915;28;20116;-65
2024/03/23 00:46:47;;;;;;;21.70;6.13;;;;;;;5.43;100.00;100955.91;5044989;28;20381;-65
2024/03/23 00:49:14;;;;;;;22.23;6.35;;;;;;;5.38;100.00;100960.16;5046593;28;20033;-66
2024/03/23 00:51:40;;;;;;;21.98;6.30;;;;;;;5.31;100.00;100956.47;5043625;28;20037;-65
2024/03/23 00:54:06;;;;;;;23.08;6.45;;;;;;;5.28;100.00;100955.50;5047235;28;20442;-65
2024/03/23 00:56:31;;;;;;;23.55;6.88;;;;;;;5.24;100.00;100965.91;5044370;28;20380;-65
2024/03/23 00:58:56;;;;;;;24.00;6.55;;;;;;;5.21;100.00;100955.34;5045855;28;20044;-64
2024/03/23 01:01:22;;;;;;;22.95;6.25;;;;;;;5.12;100.00;100957.69;5044912;28;20095;-64
2024/03/23 01:03:47;;;;;;;24.80;6.53;;;;;;;5.08;100.00;100958.44;5044649;28;20021;-64
2024/03/23 01:06:12;;;;;;;24.50;6.57;;;;;;;4.97;100.00;100955.53;5046484;28;20039;-64
2024/03/23 01:08:38;;;;;;;21.75;6.00;;;;;;;4.91;100.00;100949.19;5042310;28;20381;-66
2024/03/23 01:11:04;;;;;;;21.35;6.15;;;;;;;4.94;100.00;100954.56;5047036;28;20021;-65
2024/03/23 01:13:29;;;;;;;25.65;6.60;;;;;;;4.94;100.00;100963.28;5043777;28;20033;-66
2024/03/23 01:15:56;;;;;;;22.30;6.65;;;;;;;4.91;100.00;100964.91;5045510;28;20034;-64
2024/03/23 01:18:22;;;;;;;23.42;6.55;;;;;;;4.90;100.00;100958.81;5044963;28;20029;-64
2024/03/23 01:20:48;;;;;;;22.80;6.57;;;;;;;4.94;100.00;100957.19;5044320;28;20391;-64
2024/03/23 01:23:14;;;;;;;22.00;6.78;;;;;;;4.92;100.00;100950.97;5045869;28;20021;-64
2024/03/23 01:25:39;;;;;;;23.55;7.00;;;;;;;4.93;100.00;100950.16;5042919;28;20052;-64
2024/03/23 01:28:06;;;;;;;22.55;6.43;;;;;;;4.93;100.00;100952.78;5045733;28;20170;-65
2024/03/23 01:30:32;;;;;;;24.10;6.80;;;;;;;4.86;100.00;100949.97;5042751;28;20030;-65
2024/03/23 01:32:57;;;;;;;23.00;6.80;;;;;;;4.89;100.00;100946.53;5045378;28;20376;-65
2024/03/23 01:35:23;;;;;;;22.00;6.55;;;;;;;4.78;100.00;100940.13;5043424;28;20033;-79
2024/03/23 01:37:48;;;;;;;24.45;6.75;;;;;;;4.77;100.00;100930.47;5044077;28;20024;-78
2024/03/23 01:40:13;;;;;;;25.05;7.03;;;;;;;4.73;100.00;100937.34;5045964;28;20052;-78
2024/03/23 01:42:39;;;;;;;21.92;6.88;;;;;;;4.71;100.00;100931.19;5043037;28;20473;-78
2024/03/23 01:45:07;;;;;;;27.05;7.30;;;;;;;4.72;100.00;100940.81;5046784;28;20029;-79
2024/03/23 01:47:33;;;;;;;25.75;7.68;;;;;;;4.73;100.00;100932.09;5043754;28;20108;-80
2024/03/23 01:49:59;;;;;;;23.65;7.50;;;;;;;4.68;100.00;100937.22;5045927;28;20051;-80
2024/03/23 01:52:25;;;;;;;24.27;7.65;;;;;;;4.67;100.00;100943.28;5044683;28;20375;-80
2024/03/23 01:54:50;;;;;;;24.88;8.15;;;;;;;4.64;100.00;100930.09;5043117;28;20494;-79
2024/03/23 01:57:16;;;;;;;24.65;8.25;;;;;;;4.68;100.00;100913.63;5043750;28;20538;-79
2024/03/23 01:59:41;;;;;;;24.63;7.82;;;;;;;4.65;100.00;100916.16;5046209;28;20079;-78
2024/03/23 02:02:07;;;;;;;25.25;8.43;;;;;;;4.66;100.00;100927.53;5042724;28;20026;-71
2024/03/23 02:04:32;;;;;;;25.42;8.60;;;;;;;4.64;100.00;100921.38;5045951;28;20072;-64
2024/03/23 02:06:57;;;;;;;26.40;9.00;;;;;;;4.62;100.00;100913.47;5043614;28;20527;-78
2024/03/23 02:09:23;;;;;;;28.55;9.23;;;;;;;4.63;100.00;100924.81;5044424;28;20109;-77
2024/03/23 02:11:48;;;;;;;26.88;9.00;;;;;;;4.63;100.00;100916.97;5044625;28;20091;-77
2024/03/23 02:14:13;;;;;;;28.98;9.75;;;;;;;4.65;100.00;100916.16;5044110;28;20033;-72
2024/03/23 02:16:39;;;;;;;28.58;9.55;;;;;;;4.69;100.00;100917.16;5045554;28;20029;-64
2024/03/23 02:19:04;;;;;;;28.15;9.23;;;;;;;4.70;100.00;100897.97;5042262;28;20033;-66
2024/03/23 02:21:31;;;;;;;26.88;9.32;;;;;;;4.66;100.00;100899.63;5044977;28;20048;-68
2024/03/23 02:23:58;;;;;;;26.45;9.57;;;;;;;4.63;100.00;100896.00;5042867;28;20110;-64
2024/03/23 02:26:23;;;;;;;27.58;10.05;;;;;;;4.62;100.00;100904.72;5043804;28;20050;-68
2024/03/23 02:28:48;;;;;;;27.63;9.48;;;;;;;4.61;100.00;100902.94;5043937;28;20036;-64
2024/03/23 02:31:15;;;;;;;27.95;9.90;;;;;;;4.59;100.00;100888.91;5042597;28;20044;-73
2024/03/23 02:33:40;;;;;;;27.00;9.40;;;;;;;4.60;100.00;100890.69;5045278;28;20051;-67
2024/03/23 02:36:06;;;;;;;27.63;9.90;;;;;;;4.58;100.00;100892.38;5041892;28;20033;-64
2024/03/23 02:38:31;;;;;;;25.70;8.85;;;;;;;4.59;100.00;100889.81;5044350;28;20021;-64
2024/03/23 02:41:02;;;;;;;26.67;9.80;;;;;;;4.55;100.00;100890.56;5042582;28;20041;-64
2024/03/23 02:43:27;;;;;;;27.45;9.40;;;;;;;4.50;100.00;100887.81;5044035;28;20044;-69
2024/03/23 02:45:53;;;;;;;28.77;9.85;;;;;;;4.50;100.00;100893.03;5043211;28;20032;-64
2024/03/23 02:48:18;;;;;;;26.05;9.40;;;;;;;4.49;100.00;100893.00;5042690;28;20083;-65
2024/03/23 02:50:43;;;;;;;26.33;9.25;;;;;;;4.45;100.00;100886.78;5044739;28;20037;-65
2024/03/23 02:53:09;;;;;;;27.05;9.32;;;;;;;4.44;100.00;100889.34;5040091;28;20025;-65
2024/03/23 02:55:34;;;;;;;27.15;9.45;;;;;;;4.41;100.00;100890.13;5044702;28;20067;-65
2024/03/23 02:58:01;;;;;;;26.33;9.05;;;;;;;4.39;100.00;100890.94;5041996;28;20056;-65
2024/03/23 03:00:27;;;;;;;24.48;8.75;;;;;;;4.38;100.00;100897.91;5043594;28;20040;-65
2024/03/23 03:02:53;;;;;;;25.05;8.75;;;;;;;4.35;100.00;100889.94;5041844;28;20040;-65
2024/03/23 03:05:18;;;;;;;25.52;8.80;;;;;;;4.34;100.00;100888.19;5042240;28;20025;-65
2024/03/23 03:07:43;;;;;;;24.98;8.45;;;;;;;4.34;100.00;100889.06;5044055;28;20045;-66
2024/03/23 03:10:11;;;;;;;26.92;7.95;;;;;;;4.29;100.00;100897.63;5041169;28;20468;-66
2024/03/23 03:12:37;;;;;;;25.67;7.95;;;;;;;4.26;100.00;100901.03;5037323;28;20362;-65
2024/03/23 03:15:03;;;;;;;27.77;8.70;;;;;;;4.27;100.00;100897.59;5044167;28;20082;-64
2024/03/23 03:17:28;;;;;;;26.63;8.57;;;;;;;4.24;100.00;100905.34;5040870;28;20045;-65
2024/03/23 03:19:55;;;;;;;23.83;7.35;;;;;;;4.20;100.00;100900.84;5042693;28;20038;-65
2024/03/23 03:22:21;;;;;;;24.40;7.60;;;;;;;4.19;100.00;100896.44;5043105;28;20151;-65
2024/03/23 03:24:47;;;;;;;24.23;7.25;;;;;;;4.14;100.00;100900.66;5041569;28;20033;-64
2024/03/23 03:27:12;;;;;;;25.15;7.18;;;;;;;4.04;100.00;100896.84;5043813;28;20048;-64
2024/03/23 03:29:37;;;;;;;23.70;6.95;;;;;;;3.96;100.00;100885.25;5041272;28;20029;-64
2024/03/23 03:32:03;;;;;;;24.08;7.18;;;;;;;3.86;100.00;100897.16;5043924;28;20029;-64
2024/03/23 03:34:29;;;;;;;23.75;6.90;;;;;;;3.80;100.00;100890.00;5041669;28;20029;-65
2024/03/23 03:36:54;;;;;;;22.88;6.68;;;;;;;3.73;100.00;100893.25;5042780;28;20025;-64
2024/03/23 03:39:20;;;;;;;23.23;6.57;;;;;;;3.63;100.00;100884.22;5042965;28;20031;-64
2024/03/23 03:41:45;;;;;;;23.40;6.45;;;;;;;3.57;100.00;100886.63;5041148;28;20030;-63
2024/03/23 03:44:10;;;;;;;23.45;6.90;;;;;;;3.51;100.00;100882.91;5044187;28;20480;-64
2024/03/23 03:46:36;;;;;;;22.67;6.60;;;;;;;3.44;100.00;100877.47;5036853;28;20026;-64
2024/03/23 03:49:01;;;;;;;26.33;7.22;;;;;;;3.41;100.00;100877.38;5043396;28;20025;-63
2024/03/23 03:51:26;;;;;;;24.13;7.00;;;;;;;3.35;100.00;100887.63;5042199;28;20426;-65
2024/03/23 03:53:52;;;;;;;23.98;6.88;;;;;;;3.29;100.00;100876.94;5045947;28;20358;-65
2024/03/23 03:56:17;;;;;;;24.67;6.80;;;;;;;3.25;100.00;100872.47;5047291;28;20422;-64
2024/03/23 03:58:43;;;;;;;24.00;6.95;;;;;;;3.20;100.00;100874.91;5045134;28;20036;-64
2024/03/23 04:01:08;;;;;;;24.38;6.70;;;;;;;3.16;100.00;100874.75;5048103;28;20064;-64
2024/03/23 04:03:34;;;;;;;22.92;6.60;;;;;;;3.09;100.00;100877.16;5045002;28;20044;-64
2024/03/23 04:05:59;;;;;;;25.10;6.57;;;;;;;3.05;100.00;100880.47;5046995;28;20052;-64
2024/03/23 04:08:25;;;;;;;23.40;7.00;;;;;;;3.03;100.00;100878.66;5046410;28;20376;-65
2024/03/23 04:10:50;;;;;;;22.58;6.80;;;;;;;3.01;100.00;100877.72;5046004;28;20029;-65
2024/03/23 04:13:16;;;;;;;23.75;6.95;;;;;;;3.00;100.00;100876.84;5047033;28;20467;-64
2024/03/23 04:15:42;;;;;;;25.08;7.13;;;;;;;2.99;100.00;100879.41;5043237;28;20496;-65
2024/03/23 04:18:08;;;;;;;23.35;7.00;;;;;;;2.99;100.00;100877.66;5048023;28;20391;-65
2024/03/23 04:20:34;;;;;;;22.95;7.20;;;;;;;2.94;100.00;100873.97;5044729;28;20022;-65
2024/03/23 04:23:00;;;;;;;24.25;6.97;;;;;;;2.90;100.00;100875.59;5046779;28;20037;-66
2024/03/23 04:25:25;;;;;;;23.20;7.18;;;;;;;2.87;100.00;100870.28;5045706;28;20048;-67
2024/03/23 04:27:51;;;;;;;25.23;7.35;;;;;;;2.88;100.00;100872.03;5045135;28;20021;-69
2024/03/23 04:30:17;;;;;;;26.15;7.57;;;;;;;2.88;100.00;100873.78;5046736;28;20491;-66
2024/03/23 04:32:42;;;;;;;24.17;8.02;;;;;;;2.85;100.00;100874.53;5044414;28;20033;-64
2024/03/23 04:35:11;;;;;;;27.67;8.43;;;;;;;2.81;100.00;100870.06;5047388;28;20056;-64
2024/03/23 04:37:37;;;;;;;27.50;8.27;;;;;;;2.78;100.00;100878.66;5040038;28;20044;-72
2024/03/23 04:40:03;;;;;;;24.58;7.57;;;;;;;2.78;100.00;100870.84;5046862;28;20028;-67
2024/03/23 04:42:29;;;;;;;27.00;8.25;;;;;;;2.80;100.00;100873.50;5044661;28;20112;-66
2024/03/23 04:44:55;;;;;;;27.67;9.10;;;;;;;2.79;100.00;100872.59;5046010;28;20108;-69
2024/03/23 04:47:20;;;;;;;25.88;8.77;;;;;;;2.76;100.00;100866.38;5046314;28;20464;-64
2024/03/23 04:49:45;;;;;;;27.52;9.35;;;;;;;2.75;100.00;100868.13;5043312;28;20104;-65
2024/03/23 04:52:12;;;;;;;28.00;9.70;;;;;;;2.77;100.00;100879.50;5047571;28;20029;-66
2024/03/23 04:54:37;;;;;;;30.10;9.85;;;;;;;2.75;100.00;100875.94;5047327;28;20036;-65
2024/03/23 04:57:03;;;;;;;29.10;10.70;;;;;;;2.75;100.00;100880.25;5044089;28;20120;-68
2024/03/23 04:59:28;;;;;;;29.58;10.85;;;;;;;2.71;100.00;100883.59;5046000;28;20075;-68
2024/03/23 05:01:53;;;;;;;30.88;11.57;;;;;;;2.65;100.00;100876.44;5043871;28;20028;-66
2024/03/23 05:04:19;;;;;;;29.02;11.70;;;;;;;2.69;100.00;100875.69;5044102;28;20057;-65
2024/03/23 05:06:44;;;;;;;30.10;12.40;;;;;;;2.65;100.00;100863.41;5046865;28;20037;-66
2024/03/23 05:09:11;;;;;;;30.85;13.00;;;;;;;2.74;100.00;100873.28;5043463;28;20484;-65
2024/03/23 05:11:38;;;;;;;31.65;13.68;;;;;;;2.77;100.00;100869.06;5046948;28;20056;-66
2024/03/23 05:14:03;;;;;;;31.58;13.40;;;;;;;2.74;100.00;100863.72;5043678;28;20075;-65
2024/03/23 05:16:29;;;;;;;35.47;13.95;;;;;;;2.74;100.00;100866.34;5044547;28;20033;-66
2024/03/23 05:18:54;;;;;;;35.35;14.40;;;;;;;2.74;100.00;100865.44;5045094;28;20108;-66
2024/03/23 05:21:20;;;;;;;32.38;13.80;;;;;;;2.72;100.00;100870.63;5044385;28;20095;-66
2024/03/23 05:23:45;;;;;;;36.15;14.93;;;;;;;2.73;100.00;100871.50;5045973;28;20107;-66
2024/03/23 05:26:11;;;;;;;35.33;15.05;;;;;;;2.69;100.00;100878.31;5042845;28;20111;-65
2024/03/23 05:28:36;;;;;;;34.08;15.05;;;;;;;2.73;100.00;100877.59;5046321;28;20111;-66
2024/03/23 05:31:01;;;;;;;34.95;15.60;;;;;;;2.79;100.00;100884.78;5043689;28;20397;-66
2024/03/23 05:33:27;;;;;;;36.03;16.30;;;;;;;2.80;100.00;100873.50;5045246;28;20079;-66
2024/03/23 05:36:01;;;;;;;37.65;16.13;;;;;;;2.78;100.00;100870.84;5045102;28;20025;-65
2024/03/23 05:38:26;;;;;;;36.03;15.80;;;;;;;2.83;100.00;100867.50;5044837;28;20047;-65
2024/03/23 05:40:59;;;;;;;35.35;15.43;;;;;;;2.81;100.00;100863.94;5044810;28;20468;-64
2024/03/23 05:43:24;;;;;;;34.22;15.07;;;;;;;2.83;100.00;100872.72;5044402;28;20033;-65
2024/03/23 05:45:57;;;;;;;32.03;15.27;;;;;;;2.77;100.00;100874.28;5044967;28;20033;-65
2024/03/23 05:48:22;;;;;;;33.20;15.15;;;;;;;2.74;100.00;100871.56;5044066;28;20036;-78
2024/03/23 05:50:51;;;;;;;33.67;15.40;;;;;;;2.74;100.00;100871.56;5045653;28;20104;-76
2024/03/23 05:53:17;;;;;;;33.50;14.55;;;;;;;2.77;100.00;100868.16;5043244;28;20083;-75
2024/03/23 05:55:42;;;;;;;31.25;14.45;;;;;;;2.76;100.00;100856.81;5046180;28;20060;-75
2024/03/23 05:58:08;;;;;;;34.17;14.13;;;;;;;2.78;100.00;100865.63;5043001;28;20489;-72
2024/03/23 06:00:34;;;;;;;34.72;14.23;;;;;;;2.85;100.00;100860.59;5045644;28;20083;-73
2024/03/23 06:02:59;;;;;;;35.28;13.82;;;;;;;2.83;100.00;100863.16;5043880;28;20025;-74
2024/03/23 06:05:24;;;;;;;32.42;13.55;;;;;;;2.87;100.00;100874.59;5045708;28;20121;-75
2024/03/23 06:07:50;;;;;;;31.52;13.15;;;;;;;2.91;100.00;100866.03;5045160;28;20033;-76
2024/03/23 06:10:15;;;;;;;35.03;13.40;;;;;;;2.95;100.00;100874.03;5043126;28;20061;-78
2024/03/23 06:12:41;;;;;;;32.15;12.75;;;;;;;2.99;100.00;100866.34;5042128;28;20018;-75
2024/03/23 06:15:10;;;;;;;30.77;12.50;;;;;;;3.06;100.00;100874.44;5043519;28;20029;-76
2024/03/23 06:17:38;;;;;;;32.70;12.52;;;;;;;3.16;100.00;100874.75;5042661;28;20052;-66
2024/03/23 06:20:06;;;;;;;30.80;13.02;;;;;;;3.26;100.00;100879.47;5045489;28;20037;-65
2024/03/23 06:22:31;;;;;;;30.40;11.68;;;;;;;3.35;100.00;100882.41;5042981;28;20033;-65
2024/03/23 06:24:57;;;;;;;27.67;11.30;;;;;;;3.44;100.00;100890.53;5043914;28;20025;-64
2024/03/23 06:27:22;;;;;;;28.48;9.57;;;;;;;3.62;100.00;100890.28;5044509;28;20418;-75
2024/03/23 06:29:47;;;;;;;27.63;9.65;;;;;;;3.74;100.00;100889.81;5042548;28;20025;-71
2024/03/23 06:32:13;;;;;;;27.52;9.25;;;;;;;3.78;100.00;100886.44;5045286;28;20029;-67
2024/03/23 06:34:41;;;;;;;25.00;7.82;;;;;;;3.82;100.00;100897.91;5042013;28;20070;-65
2024/03/23 06:37:06;;;;;;;25.00;7.28;;;;;;;3.86;100.00;100889.31;5044921;28;20460;-65
2024/03/23 06:39:32;;;;;;;24.55;7.80;;;;;;;3.91;100.00;100886.84;5042278;28;20033;-65
2024/03/23 06:41:57;;;;;;;25.67;7.32;;;;;;;4.01;100.00;100888.91;5043731;28;20029;-65
2024/03/23 06:44:22;;;;;;;24.08;7.28;;;;;;;4.16;100.00;100883.25;5025753;28;20029;-66
2024/03/23 06:46:49;;;;;;;24.85;6.47;;;;;;;4.17;100.00;100882.44;5041037;28;20476;-66
2024/03/23 06:49:14;;;;;;;22.85;6.05;;;;;;;4.24;100.00;100888.72;5044854;28;20025;-65
2024/03/23 06:51:40;;;;;;;20.13;5.05;;;;;;;4.23;100.00;100905.28;5041463;28;20077;-65
2024/03/23 06:54:05;;;;;;;20.00;4.80;;;;;;;4.09;100.00;100882.22;5044601;28;20055;-65
2024/03/23 06:56:31;;;;;;;22.27;4.93;;;;;;;3.93;100.00;100875.59;5042362;28;20074;-66
2024/03/23 06:58:57;;;;;;;19.98;4.70;;;;;;;3.73;100.00;100874.94;5042992;28;20037;-64
2024/03/23 07:01:22;;;;;;;22.30;4.85;;;;;;;3.73;100.00;100882.78;5043632;28;20033;-65
2024/03/23 07:03:47;;;;;;;19.95;4.60;;;;;;;3.71;100.00;100880.97;5041710;28;20029;-65
2024/03/23 07:06:13;;;;;;;22.08;5.28;;;;;;;3.77;100.00;100876.84;5044616;28;20041;-65
2024/03/23 07:08:38;;;;;;;22.35;5.47;;;;;;;3.93;100.00;100875.59;5037527;28;20040;-66
2024/03/23 07:11:04;;;;;;;20.88;5.45;;;;;;;4.09;100.00;100887.44;5043797;28;20060;-66
2024/03/23 07:13:30;;;;;;;22.77;5.82;;;;;;;4.19;100.00;100886.88;5042434;28;20128;-69
2024/03/23 07:15:55;;;;;;;21.85;5.90;;;;;;;4.23;100.00;100889.59;5042731;28;20176;-66
2024/03/23 07:18:21;;;;;;;21.80;5.50;;;;;;;4.24;100.00;100891.34;5043351;28;20029;-65
2024/03/23 07:20:57;;;;;;;22.23;6.30;;;;;;;4.27;100.00;100899.31;5041362;28;20040;-65
2024/03/23 07:23:25;;;;;;;21.77;6.10;;;;;;;4.29;100.00;100897.63;5043324;28;20106;-65
2024/03/23 07:26:04;;;;;;;23.98;6.13;;;;;;;4.38;100.00;100887.41;5040421;28;20045;-65
2024/03/23 07:28:34;;;;;;;21.52;5.80;;;;;;;4.48;100.00;100884.25;5040981;28;20392;-65
2024/03/23 07:31:10;;;;;;;21.08;5.70;;;;;;;4.53;100.00;100890.50;5043013;28;20026;-65
2024/03/23 07:33:44;;;;;;;20.20;5.72;;;;;;;4.57;100.00;100893.22;5038396;28;20373;-76
2024/03/23 07:36:09;;;;;;;21.25;5.50;;;;;;;4.70;100.00;100887.50;5044780;28;20033;-77
2024/03/23 07:38:35;;;;;;;23.90;6.55;;;;;;;4.98;100.00;100894.41;5041695;28;20029;-77
2024/03/23 07:41:04;;;;;;;22.42;5.97;;;;;;;5.27;100.00;100898.66;5043341;28;20497;-73
2024/03/23 07:43:30;;;;;;;23.88;5.90;;;;;;;5.27;100.00;100888.19;5042416;28;20504;-78
2024/03/23 07:45:55;;;;;;;22.35;5.65;;;;;;;5.33;100.00;100875.22;5042654;28;20040;-76
2024/03/23 07:48:24;;;;;;;21.15;5.75;;;;;;;5.41;100.00;100874.59;5043417;28;20057;-78
2024/03/23 07:51:17;;;;;;;22.67;6.15;;;;;;;5.62;100.00;100882.97;5041951;28;20049;-69
2024/03/23 07:53:44;;;;;;;22.95;5.90;;;;;;;5.67;100.00;100882.25;5035643;28;20072;-78
2024/03/23 07:56:10;;;;;;;23.08;6.20;;;;;;;5.87;100.00;100874.88;5037076;28;20029;-75
2024/03/23 07:58:36;;;;;;;25.02;6.00;;;;;;;5.97;100.00;100875.06;5043695;28;20040;-73
2024/03/23 08:01:11;;;;;;;24.85;5.72;;;;;;;6.07;100.00;100867.50;5041834;28;20037;-77
2024/03/23 08:03:37;;;;;;;20.67;5.22;;;;;;;6.14;100.00;100870.25;5043960;28;20459;-77
2024/03/23 08:06:14;;;;;;;23.13;5.68;;;;;;;6.35;100.00;100867.22;5041643;28;20491;-78
2024/03/23 08:08:40;;;;;;;22.73;5.38;;;;;;;6.57;100.00;100861.56;5039463;28;20037;-78
2024/03/23 08:11:06;;;;;;;21.58;5.32;;;;;;;6.83;100.00;100870.84;5043986;28;20033;-75
2024/03/23 08:13:33;;;;;;;21.98;4.97;;;;;;;6.86;100.00;100869.19;5041572;28;20033;-66
2024/03/23 08:15:59;;;;;;;19.75;4.75;;;;;;;6.67;100.00;100865.28;5041123;28;20036;-66
2024/03/23 08:18:25;;;;;;;20.88;4.60;;;;;;;6.59;100.00;100856.34;5042565;28;20035;-66
2024/03/23 08:21:04;;;;;;;20.85;5.00;;;;;;;6.77;100.00;100868.97;5041184;28;20037;-70
2024/03/23 08:23:35;;;;;;;19.60;4.10;;;;;;;7.01;100.00;100857.19;5041592;28;20468;-67
2024/03/23 08:26:02;;;;;;;17.02;3.72;;;;;;;7.21;100.00;100857.53;5042522;28;20054;-73
2024/03/23 08:28:27;;;;;;;18.02;3.50;;;;;;;7.30;100.00;100848.09;5042170;28;20537;-72
2024/03/23 08:30:54;;;;;;;20.98;4.30;;;;;;;7.38;100.00;100855.22;5041532;28;20034;-71
2024/03/23 08:33:20;;;;;;;19.95;4.00;;;;;;;7.36;100.00;100847.31;5039520;28;20029;-66
2024/03/23 08:35:59;;;;;;;18.92;3.78;;;;;;;7.73;100.00;100850.53;5043506;28;20314;-67
2024/03/23 08:38:26;;;;;;;21.35;4.10;;;;;;;7.95;100.00;100846.53;5041752;28;20024;-66
2024/03/23 08:41:04;;;;;;;17.52;3.67;;;;;;;7.92;100.00;100840.31;5046275;28;20079;-66
2024/03/23 08:43:40;;;;;;;19.38;3.78;;;;;;;7.63;100.00;100846.91;5045938;28;20032;-66
2024/03/23 08:46:11;;;;;;;19.08;3.80;;;;;;;8.29;100.00;100831.19;5044059;28;20025;-66
2024/03/23 08:48:38;;;;;;;21.15;4.13;;;;;;;8.62;100.00;100843.09;5046893;28;20021;-66
2024/03/23 08:51:04;;;;;;;18.60;3.70;;;;;;;8.36;100.00;100840.97;5044490;28;20082;-66
2024/03/23 08:53:30;;;;;;;18.92;3.50;;;;;;;8.33;100.00;100847.91;5045734;28;20025;-66
2024/03/23 08:56:02;;;;;;;16.42;3.00;;;;;;;7.88;100.00;100844.66;5045678;28;20092;-66
2024/03/23 08:58:29;;;;;;;17.30;3.20;;;;;;;7.38;100.00;100855.22;5045840;28;20131;-66
2024/03/23 09:00:56;;;;;;;17.00;3.22;;;;;;;6.92;100.00;100856.16;5045225;28;20115;-67
2024/03/23 09:03:25;;;;;;;15.85;2.75;;;;;;;6.30;100.00;100858.38;5044623;28;20029;-66
2024/03/23 09:05:51;;;;;;;15.40;2.72;;;;;;;5.49;100.00;100872.19;5046486;28;20048;-66
2024/03/23 09:08:17;;;;;;;17.17;3.33;;;;;;;4.94;100.00;100904.78;5043746;28;20034;-66
2024/03/23 09:10:43;;;;;;;14.80;2.67;;;;;;;4.39;100.00;100898.81;5046850;28;20037;-66
2024/03/23 09:13:08;;;;;;;14.77;2.90;;;;;;;4.07;100.00;100881.25;5042267;28;20531;-66
2024/03/23 09:15:35;;;;;;;15.80;2.95;;;;;;;3.95;100.00;100883.50;5045746;28;20668;-65
2024/03/23 09:18:01;;;;;;;19.63;3.10;;;;;;;4.11;100.00;100874.41;5044544;28;20029;-65
2024/03/23 09:20:26;;;;;;;16.35;3.15;;;;;;;4.23;100.00;100871.28;5044736;28;20084;-66
2024/03/23 09:22:52;;;;;;;15.18;3.15;;;;;;;4.46;100.00;100865.00;5044826;28;20040;-78
2024/03/23 09:25:17;;;;;;;19.35;3.50;;;;;;;4.95;100.00;100869.84;5043609;28;20135;-69
2024/03/23 09:27:42;;;;;;;17.10;3.17;;;;;;;5.83;100.00;100864.25;5046613;28;20033;-74
2024/03/23 09:30:10;;;;;;;18.48;3.30;;;;;;;6.89;100.00;100866.59;5043254;28;20125;-78
2024/03/23 09:32:35;;;;;;;16.95;3.30;;;;;;;7.79;100.00;100847.13;5046066;28;20646;-78
2024/03/23 09:35:00;;;;;;;16.38;3.28;;;;;;;8.53;100.00;100838.59;5044172;28;20109;-77
2024/03/23 09:37:26;;;;;;;16.27;3.45;;;;;;;8.91;100.00;100850.44;5043087;28;20116;-76
2024/03/23 09:39:51;;;;;;;20.13;3.60;;;;;;;9.26;100.00;100839.38;5045782;28;20407;-77
2024/03/23 09:42:16;;;;;;;18.40;3.65;;;;;;;9.46;100.00;100822.84;5043255;28;20408;-78
2024/03/23 09:44:42;;;;;;;17.40;3.50;;;;;;;9.63;100.00;100828.28;5046331;28;20033;-78
2024/03/23 09:47:08;;;;;;;17.58;3.63;;;;;;;9.84;100.00;100830.19;5043206;28;20487;-74
2024/03/23 09:49:36;;;;;;;17.70;3.50;;;;;;;9.60;100.00;100831.78;5043101;28;20033;-75
2024/03/23 09:52:03;;;;;;;15.80;3.03;;;;;;;9.88;100.00;100811.72;5042446;28;20036;-75
2024/03/23 09:54:28;;;;;;;16.48;3.78;;;;;;;10.18;100.00;100823.38;5044619;28;20029;-77
2024/03/23 09:56:53;;;;;;;18.75;4.07;;;;;;;10.26;100.00;100833.97;5045000;28;20101;-78
2024/03/23 09:59:19;;;;;;;16.98;3.35;;;;;;;10.99;100.00;100835.16;5042872;28;20075;-77
2024/03/23 10:01:44;;;;;;;15.93;3.05;;;;;;;10.33;100.00;100830.47;5045910;28;20041;-78
2024/03/23 10:04:10;;;;;;;15.73;3.67;;;;;;;9.13;100.00;100824.28;5041159;28;20179;-75
2024/03/23 10:06:36;;;;;;;17.85;3.25;;;;;;;9.22;100.00;100833.19;5045552;28;20082;-66
2024/03/23 10:09:02;;;;;;;13.93;2.58;;;;;;;8.44;100.00;100832.28;5043289;28;20499;-66
2024/03/23 10:11:29;;;;;;;9.50;2.15;;;;;;;7.90;100.00;100837.66;5042618;28;20044;-66
2024/03/23 10:13:56;;;;;;;9.80;2.40;;;;;;;7.77;100.00;100827.81;5044696;28;20021;-67
2024/03/23 10:16:23;;;;;;;8.95;2.30;;;;;;;8.45;100.00;100831.44;5042980;28;20036;-66
2024/03/23 10:18:49;;;;;;;10.73;2.33;;;;;;;9.18;100.00;100849.84;5044918;28;20468;-66
2024/03/23 10:21:15;;;;;;;15.50;2.70;;;;;;;9.61;100.00;100833.53;5042374;28;20096;-66
2024/03/23 10:23:45;;;;;;;13.70;2.60;;;;;;;10.18;100.00;100843.59;5045339;28;20488;-66
2024/03/23 10:26:17;;;;;;;14.48;2.90;;;;;;;10.50;100.00;100832.34;5037679;28;20447;-68
2024/03/23 10:28:52;;;;;;;;;;;;;;;11.14;100.00;100845.78;5038539;28;20025;-66
2024/03/23 10:31:19;;;;;;;16.85;3.20;;;;;;;11.22;100.00;100837.88;5039198;28;19924;-65
2024/03/23 10:33:48;;;;;;;16.52;3.10;;;;;;;12.02;100.00;100829.06;5045220;28;20022;-66
2024/03/23 10:36:14;;;;;;;15.52;3.20;;;;;;;12.51;100.00;100828.94;5038232;28;20038;-65
2024/03/23 10:38:41;;;;;;;14.68;3.05;;;;;;;11.78;100.00;100825.53;5045058;28;20047;-66
2024/03/23 10:41:09;;;;;;;14.13;2.80;;;;;;;10.93;100.00;100835.16;5042459;28;20037;-65
2024/03/23 10:43:36;;;;;;;12.70;2.80;;;;;;;11.11;100.00;100837.84;5044051;28;20029;-66
2024/03/23 10:46:02;;;;;;;12.25;2.50;;;;;;;10.65;100.00;100829.78;5042859;28;20188;-65
2024/03/23 10:48:27;;;;;;;12.23;2.60;;;;;;;10.28;100.00;100825.19;5043354;28;20447;-65
2024/03/23 10:50:53;;;;;;;14.52;2.75;;;;;;;10.84;100.00;100824.56;5044016;28;20108;-66
2024/03/23 10:53:22;;;;;;;15.30;2.80;;;;;;;11.63;100.00;100820.25;5042001;28;20064;-65
2024/03/23 10:55:49;;;;;;;12.95;2.60;;;;;;;11.18;100.00;100825.50;5043407;28;20483;-66
2024/03/23 10:58:15;;;;;;;15.13;2.83;;;;;;;9.91;100.00;100822.31;5040314;28;20255;-66
2024/03/23 11:00:40;;;;;;;15.18;2.92;;;;;;;9.15;100.00;100812.91;5044342;28;20472;-66
2024/03/23 11:03:30;;;;;;;14.50;2.90;;;;;;;8.39;100.00;100824.31;5041621;28;20040;-65
2024/03/23 11:05:56;;;;;;;15.55;3.00;;;;;;;8.16;100.00;100821.38;5040803;28;20037;-66
2024/03/23 11:08:38;;;;;;;13.68;2.95;;;;;;;9.27;100.00;100809.47;5043742;28;20029;-66
2024/03/23 11:11:20;;;;;;;18.02;3.35;;;;;;;11.70;100.00;100800.81;5043350;28;20026;-66
2024/03/23 11:13:53;;;;;;;14.37;2.93;;;;;;;12.26;100.00;100806.94;5037593;28;20416;-66